Latest Weather Observations for Dum In Mirrie

IDD60901

Issued at 6:51 pm CST Friday 28 August 2015 (issued every 10 minutes, with the page automatically refreshed every 10 minutes)

About weather observations | Map of Darwin area stations | Latest observations for Darwin area | Other Formats
Station Details ID: 014277 Name: DUM IN MIRRIE AIRSTRIP Lat: -12.63 Lon: 130.37 Height: 3.5 m
Data from the previous 72 hours. | See also: Recent months at Dum In Mirrie
Date/Time
CST
Tmp

°C
App
Tmp
°C
Dew
Point
°C
Rel
Hum
%
Delta-T

°C
Wind Press
QNH
hPa
Press
MSL
hPa
Rain
since
9 am
mm
Dir
 
Spd
km/h
Gust
km/h
Spd
kts
Gust
kts
28/06:30pm 27.1 30.7 21.2 70 3.9 SW 4 9 2 5 1012.7 1012.7 0.0
28/06:00pm 27.6 30.4 20.9 67 4.4 W 7 11 4 6 1012.4 1012.4 0.0
28/05:30pm 28.4 31.6 21.7 67 4.5 W 7 13 4 7 1012.1 1012.1 0.0
28/05:00pm 28.6 31.9 21.9 67 4.5 WNW 7 13 4 7 1012.1 1012.1 0.0
28/04:30pm 28.9 32.0 22.2 67 4.5 WNW 9 19 5 10 1012.2 1012.2 0.0
28/04:00pm 28.9 31.9 21.9 66 4.7 WNW 9 15 5 8 1012.2 1012.2 0.0
28/03:30pm 28.8 31.2 21.6 65 4.8 NW 11 19 6 10 1012.4 1012.4 0.0
28/03:00pm 28.8 31.5 21.3 64 5.0 WNW 9 19 5 10 1012.7 1012.7 0.0
28/02:30pm 29.8 33.0 22.3 64 5.1 NW 9 17 5 9 1012.8 1012.8 0.0
28/02:00pm 29.2 31.4 21.2 62 5.3 WNW 11 19 6 10 1013.2 1013.2 0.0
28/01:30pm 29.8 32.3 21.7 61 5.4 WNW 11 19 6 10 1013.7 1013.7 0.0
28/01:00pm 29.7 31.5 21.1 60 5.7 W 13 22 7 12 1014.1 1014.1 0.0
28/12:30pm 32.4 34.6 19.3 46 8.6 E 6 17 3 9 1014.6 1014.6 0.0
28/12:00pm 30.8 32.3 18.8 48 7.8 ESE 9 15 5 8 1015.2 1015.2 0.0
28/11:30am 30.2 32.3 20.2 55 6.6 E 9 17 5 9 1015.7 1015.7 0.0
28/11:00am 29.7 31.9 20.5 57 6.1 ENE 9 15 5 8 1016.3 1016.3 0.0
28/10:30am 28.7 30.4 20.2 60 5.6 ENE 11 17 6 9 1016.7 1016.7 0.0
28/10:00am 28.2 30.4 20.5 63 5.1 E 9 17 5 9 1016.8 1016.8 0.0
28/09:30am 27.9 31.0 21.4 67 4.3 E 7 13 4 7 1016.6 1016.6 0.0
28/09:00am 27.0 29.3 21.3 71 3.8 E 11 17 6 9 1016.4 1016.4 0.0
28/08:30am 26.4 29.8 22.0 77 2.9 E 7 13 4 7 1016.2 1016.2 0.0
28/08:00am 25.7 29.4 22.2 81 2.3 E 6 7 3 4 1015.9 1015.9 0.0
28/07:30am 24.3 28.5 22.4 89 1.3 ESE 4 4 2 2 1015.4 1015.4 0.0
28/07:00am 23.7 27.4 22.3 92 0.9 E 6 11 3 6 1015.2 1015.2 0.0
28/06:30am 22.5 26.5 20.6 89 1.2 CALM 0 0 0 0 1014.6 1014.6 0.0
28/06:00am 23.0 26.6 20.5 86 1.6 NE 2 6 1 3 1014.3 1014.3 0.0
28/05:30am 23.5 27.5 20.6 84 1.9 CALM 0 0 0 0 1014.1 1014.1 0.0
28/05:00am 24.0 28.2 20.9 83 2.0 CALM 0 0 0 0 1014.0 1014.0 0.0
28/04:30am 24.3 28.0 20.8 81 2.3 NNW 2 2 1 1 1014.0 1014.0 0.0
28/04:00am 25.3 29.8 21.6 80 2.5 CALM 0 0 0 0 1014.0 1014.0 0.0
28/03:30am 25.5 29.3 21.6 79 2.6 N 4 7 2 4 1013.9 1013.9 0.0
28/03:00am 25.0 28.8 20.9 78 2.7 WNW 2 4 1 2 1014.0 1014.0 0.0
28/02:30am 25.1 29.3 21.0 78 2.7 CALM 0 4 0 2 1014.4 1014.4 0.0
28/02:00am 25.5 29.4 21.2 77 2.8 NW 2 6 1 3 1014.6 1014.6 0.0
28/01:30am 25.6 29.2 21.3 77 2.8 NW 4 9 2 5 1014.7 1014.7 0.0
28/01:00am 25.2 28.7 21.1 78 2.7 NW 4 7 2 4 1014.8 1014.8 0.0
28/12:30am 25.2 28.7 21.1 78 2.7 NW 4 9 2 5 1014.8 1014.8 0.0
28/12:00am 25.4 28.7 21.5 79 2.6 NW 6 9 3 5 1015.0 1015.0 0.0
 
Date/Time
CST
Tmp

°C
App
Tmp
°C
Dew
Point
°C
Rel
Hum
%
Delta-T

°C
Wind Press
QNH
hPa
Press
MSL
hPa
Rain
since
9 am
mm
Dir
 
Spd
km/h
Gust
km/h
Spd
kts
Gust
kts
27/11:30pm 25.4 28.8 20.9 76 3.0 NW 4 7 2 4 1014.9 1014.9 0.0
27/11:00pm 25.5 28.4 20.7 75 3.1 WNW 6 9 3 5 1015.0 1015.0 0.0
27/10:30pm 25.6 28.9 20.8 75 3.2 WNW 4 6 2 3 1014.8 1014.8 0.0
27/10:00pm 25.6 29.1 21.1 76 3.0 WNW 4 7 2 4 1014.7 1014.7 0.0
27/09:30pm 25.4 28.8 20.9 76 3.0 WNW 4 7 2 4 1014.7 1014.7 0.0
27/09:00pm 24.9 28.5 20.6 77 2.8 WSW 2 6 1 3 1014.4 1014.4 0.0
27/08:30pm 25.3 29.1 21.0 77 2.8 SW 2 6 1 3 1014.2 1014.2 0.0
27/08:00pm 25.4 28.6 19.8 71 3.6 SSW 2 4 1 2 1013.9 1013.9 0.0
27/07:30pm 25.6 29.1 19.5 69 3.9 CALM 0 2 0 1 1013.7 1013.7 0.0
27/07:00pm 26.4 29.6 19.8 67 4.3 W 2 4 1 2 1013.3 1013.3 0.0
27/06:30pm 27.1 29.8 19.4 62 5.0 WNW 4 6 2 3 1012.9 1012.9 0.0
27/06:00pm 28.0 31.1 20.3 63 5.1 NW 4 9 2 5 1012.5 1012.5 0.0
27/05:30pm 27.8 30.5 20.6 65 4.7 NNW 7 15 4 8 1012.1 1012.1 0.0
27/05:00pm 28.5 30.9 21.5 66 4.7 NNW 11 17 6 9 1011.8 1011.8 0.0
27/04:30pm 28.4 30.6 21.2 65 4.8 NNW 11 19 6 10 1011.8 1011.8 0.0
27/04:00pm 28.9 30.8 21.4 64 5.0 NNW 13 20 7 11 1011.9 1011.9 0.0
27/03:30pm 29.8 32.3 21.7 61 5.5 NNW 11 20 6 11 1012.3 1012.3 0.0
27/03:00pm 29.1 30.4 20.8 61 5.5 N 15 22 8 12 1012.4 1012.4 0.0
27/02:30pm 29.5 31.7 21.2 61 5.5 NNW 11 19 6 10 1012.9 1012.9 0.0
27/02:00pm 29.2 30.7 20.6 59 5.7 NNW 13 22 7 12 1013.3 1013.3 0.0
27/01:30pm 29.6 31.1 20.5 58 6.0 NNW 13 19 7 10 1013.8 1013.8 0.0
27/01:00pm 29.3 30.9 19.9 57 6.2 NNW 11 19 6 10 1014.3 1014.3 0.0
27/12:30pm 30.1 32.0 20.6 56 6.3 N 11 19 6 10 1014.7 1014.7 0.0
27/12:00pm 29.2 31.1 19.8 57 6.1 ENE 9 17 5 9 1015.1 1015.1 0.0
27/11:30am 29.1 31.1 20.0 58 6.0 NE 9 15 5 8 1015.7 1015.7 0.0
27/11:00am 28.6 31.0 20.1 60 5.6 ENE 7 15 4 8 1016.2 1016.2 0.0
27/10:30am 27.9 29.9 20.7 65 4.7 ENE 11 17 6 9 1016.4 1016.4 0.0
27/10:00am 27.7 30.2 21.0 67 4.4 ENE 9 15 5 8 1016.3 1016.3 0.0
27/09:30am 26.9 29.0 21.0 70 3.9 NE 11 17 6 9 1016.2 1016.2 0.0
27/09:00am 26.6 29.3 21.4 73 3.5 ENE 9 15 5 8 1015.9 1015.9 0.0
27/08:30am 26.0 29.9 22.5 81 2.4 E 6 9 3 5 1015.6 1015.6 0.0
27/08:00am 24.5 28.7 23.1 92 0.9 E 6 7 3 4 1015.2 1015.2 0.0
27/07:30am 23.2 27.5 22.7 97 0.3 ESE 4 6 2 3 1014.9 1014.9 0.0
27/07:00am 22.2 25.5 21.5 96 0.5 E 6 6 3 3 1014.3 1014.3 0.0
27/06:30am 22.2 25.9 21.4 95 0.5 E 4 6 2 3 1014.0 1014.0 0.0
27/06:00am 21.5 24.8 20.0 91 1.0 ENE 2 6 1 3 1013.7 1013.7 0.0
27/05:30am 22.1 25.4 20.0 88 1.3 NNE 2 2 1 1 1013.5 1013.5 0.0
27/05:00am 22.8 26.3 20.3 86 1.6 N 2 4 1 2 1013.2 1013.2 0.0
27/04:30am 24.1 27.5 21.0 83 2.0 N 4 7 2 4 1013.1 1013.1 0.0
27/04:00am 24.3 27.9 21.2 83 2.0 N 4 6 2 3 1013.1 1013.1 0.0
27/03:30am 24.8 28.1 21.5 82 2.2 N 6 9 3 5 1013.2 1013.2 0.0
27/03:00am 25.0 28.1 21.5 81 2.3 N 7 13 4 7 1013.2 1013.2 0.0
27/02:30am 25.2 28.4 21.7 81 2.3 N 7 13 4 7 1013.2 1013.2 0.0
27/02:00am 25.5 28.8 21.8 80 2.5 NNW 7 13 4 7 1013.4 1013.4 0.0
27/01:30am 25.5 28.9 22.0 81 2.3 NNW 7 11 4 6 1013.7 1013.7 0.0
27/01:00am 25.2 29.4 22.5 85 1.8 NNW 4 11 2 6 1014.1 1014.1 0.0
27/12:30am 24.2 28.2 22.1 88 1.4 NNW 4 6 2 3 1014.3 1014.3 0.0
27/12:00am 23.1 26.6 20.4 85 1.7 N 2 4 1 2 1014.4 1014.4 0.0
 
Date/Time
CST
Tmp

°C
App
Tmp
°C
Dew
Point
°C
Rel
Hum
%
Delta-T

°C
Wind Press
QNH
hPa
Press
MSL
hPa
Rain
since
9 am
mm
Dir
 
Spd
km/h
Gust
km/h
Spd
kts
Gust
kts
26/11:30pm 22.7 26.4 19.9 84 1.8 CALM 0 0 0 0 1014.5 1014.5 0.0
26/11:00pm 22.0 24.5 19.0 83 1.9 NE 4 6 2 3 1014.4 1014.4 0.0
26/10:30pm 22.7 26.2 19.5 82 2.0 CALM 0 0 0 0 1014.3 1014.3 0.0
26/10:00pm 23.6 26.5 19.9 80 2.4 E 4 7 2 4 1014.1 1014.1 0.0
26/09:30pm 22.8 25.5 19.4 81 2.2 E 4 6 2 3 1013.9 1013.9 0.0
26/09:00pm 23.1 26.5 19.3 79 2.4 CALM 0 0 0 0 1013.7 1013.7 0.0
26/08:30pm 23.9 27.5 19.8 78 2.6 CALM 0 0 0 0 1013.6 1013.6 0.0
26/08:00pm 24.8 27.6 19.6 73 3.3 NNE 4 6 2 3 1013.3 1013.3 0.0
26/07:30pm 26.0 28.9 19.9 69 4.0 NNE 4 6 2 3 1012.9 1012.9 0.0
26/07:00pm 26.7 29.6 19.8 66 4.5 NNE 4 9 2 5 1012.5 1012.5 0.0
26/06:30pm 27.3 29.6 19.9 64 4.8 NNE 7 13 4 7 1012.3 1012.3 0.0
26/06:00pm 28.0 29.5 19.8 61 5.3 NNE 11 17 6 9 1012.0 1012.0 0.0
26/05:30pm 28.6 29.8 19.8 59 5.8 NNE 13 24 7 13 1011.8 1011.8 0.0
26/05:00pm 28.8 30.6 20.3 60 5.6 NNE 11 19 6 10 1011.7 1011.7 0.0
26/04:30pm 29.0 30.0 20.2 59 5.8 N 15 20 8 11 1011.8 1011.8 0.0
26/04:00pm 28.9 30.2 20.9 62 5.3 N 15 26 8 14 1011.9 1011.9 0.0
26/03:30pm 29.4 31.6 21.9 64 5.1 NNW 13 24 7 13 1012.2 1012.2 0.0
26/03:00pm 29.3 30.8 22.0 64 4.9 N 17 28 9 15 1012.2 1012.2 0.0
26/02:30pm 29.5 31.3 22.5 66 4.8 N 17 26 9 14 1012.7 1012.7 0.0
26/02:00pm 29.4 30.8 21.9 64 5.1 N 17 24 9 13 1013.2 1013.2 0.0
26/01:30pm 29.7 31.8 22.4 65 5.0 NNW 15 20 8 11 1013.8 1013.8 0.0
26/01:00pm 29.4 31.6 21.9 64 5.1 NNW 13 19 7 10 1014.3 1014.3 0.0
26/12:30pm 30.6 34.0 21.7 59 6.0 NW 6 11 3 6 1015.0 1015.0 0.0
26/12:00pm 30.8 33.5 21.3 57 6.4 ENE 9 15 5 8 1015.5 1015.5 0.0
26/11:30am 30.4 32.8 20.9 57 6.3 ENE 9 20 5 11 1015.9 1015.9 0.0
26/11:00am 29.9 32.6 21.3 60 5.8 ENE 9 17 5 9 1016.2 1016.2 0.0
26/10:30am 29.3 32.2 21.8 64 5.0 ENE 9 15 5 8 1016.6 1016.6 0.0
26/10:00am 28.5 32.5 22.7 71 3.9 SE 6 11 3 6 1016.6 1016.6 0.0
26/09:30am 27.9 32.1 23.1 75 3.3 SE 6 11 3 6 1016.5 1016.5 0.0
26/09:00am 26.0 29.8 22.7 82 2.2 SE 7 11 4 6 1016.4 1016.4 0.0
26/08:30am 25.7 29.6 23.0 85 1.8 SE 7 13 4 7 1016.2 1016.2 0.0
26/08:00am 24.8 28.9 23.0 90 1.2 SE 6 11 3 6 1015.8 1015.8 0.0
26/07:30am 24.0 28.5 23.0 94 0.7 SE 4 6 2 3 1015.3 1015.3 0.0
26/07:00am 23.8 27.9 23.0 95 0.5 SE 6 7 3 4 1015.2 1015.2 0.0
26/06:30am 23.8 28.3 23.0 95 0.5 SE 4 7 2 4 1014.8 1014.8 0.0
26/06:00am 23.9 28.2 22.7 93 0.8 SE 4 6 2 3 1014.3 1014.3 0.0
26/05:30am 24.3 28.4 22.9 92 0.9 SSE 6 9 3 5 1013.9 1013.9 0.0
26/05:00am 24.6 29.1 23.0 91 1.1 SE 4 9 2 5 1013.6 1013.6 0.0
26/04:30am 24.9 29.5 23.1 90 1.2 ESE 4 6 2 3 1013.5 1013.5 0.0
26/04:00am 25.4 30.5 23.3 88 1.4 E 2 4 1 2 1013.4 1013.4 0.0
26/03:30am 25.8 30.4 23.1 85 1.8 SSE 4 9 2 5 1013.3 1013.3 0.0
26/03:00am 26.1 30.2 23.0 83 2.1 SW 6 9 3 5 1013.5 1013.5 0.0
26/02:30am 26.2 30.4 23.1 83 2.1 SW 6 9 3 5 1013.6 1013.6 0.0
26/02:00am 26.4 31.0 23.1 82 2.2 SW 4 11 2 6 1013.7 1013.7 0.0
26/01:30am 26.3 30.0 22.6 80 2.5 WSW 7 13 4 7 1013.9 1013.9 0.0
26/01:00am 26.3 30.1 22.4 79 2.6 W 6 9 3 5 1014.2 1014.2 0.0
26/12:30am 26.4 30.3 22.5 79 2.6 W 6 9 3 5 1014.4 1014.4 0.0
26/12:00am 26.4 30.4 22.7 80 2.5 W 6 11 3 6 1014.6 1014.6 0.0
 
Date/Time
CST
Tmp

°C
App
Tmp
°C
Dew
Point
°C
Rel
Hum
%
Delta-T

°C
Wind Press
QNH
hPa
Press
MSL
hPa
Rain
since
9 am
mm
Dir
 
Spd
km/h
Gust
km/h
Spd
kts
Gust
kts
25/11:30pm 26.3 30.2 23.0 82 2.2 W 7 13 4 7 1014.5 1014.5 0.0
25/11:00pm 26.1 30.1 22.8 82 2.2 W 6 9 3 5 1014.6 1014.6 0.0
25/10:30pm 26.1 30.2 23.0 83 2.1 W 6 11 3 6 1014.5 1014.5 0.0
25/10:00pm 26.1 30.5 22.8 82 2.2 WNW 4 7 2 4 1014.4 1014.4 0.0
25/09:30pm 26.3 30.4 23.0 82 2.2 WNW 6 9 3 5 1014.2 1014.2 0.0
25/09:00pm 26.5 30.9 22.8 80 2.5 WNW 4 7 2 4 1014.0 1014.0 0.0
25/08:30pm 26.6 30.7 22.9 80 2.5 NW 6 9 3 5 1013.7 1013.7 0.0
25/08:00pm 26.9 30.8 22.5 77 3.0 NNW 6 13 3 7 1013.3 1013.3 0.0
25/07:30pm 27.3 30.4 21.1 69 4.1 NE 6 9 3 5 1012.7 1012.7 0.0
25/07:00pm 27.7 30.1 20.8 66 4.6 NNE 9 15 5 8 1012.3 1012.3 0.0

Latest Capital City Observations: Canberra | Sydney | Melbourne | Brisbane | Adelaide | Perth | Hobart | Darwin

Other Formats:

Comma delimited format used in spreadsheet applications
http://www.bom.gov.au/fwo/IDD60901/IDD60901.94116.axf

JavaScript Object Notation format (JSON) in row-major order
http://www.bom.gov.au/fwo/IDD60901/IDD60901.94116.json